Other Surface Observations
Issued by NWS Great Falls, MT

Home | Current Version | Previous Version | Text Only | Print | Product List | Glossary On
Versions: 1 2 3 4 5 6 7 8 9 10 11 12 13 14 15 16 17 18 19 20 21 22 23 24 25 26 27 28 29 30 31 32 33 34 35 36 37 38 39 40 41 42 43 44 45 46 47 48 49 50
514
SXUS55 KTFX 252244
OSOTFX

AREA AWOS OBSERVATIONS
NATIONAL WEATHER SERVICE GREAT FALLS MT
0444 PM MDT Wed Apr 25 2018

METAR K3U3 252243Z AUTO 29012G26KTKT 18/M07 A3009
METAR KS71 252243Z AUTO 33015G21KTKT 10SM 16/M01 A3008
METAR K38S 252243Z AUTO 27019G23KTKT 10SM 18/M04 A3009
METAR K6S5 252243Z AUTO 26008G16KT 10SM 20/M04 A3009
METAR K1S3 252243Z AUTO 31016G24KTKT 19/M03 A2993
METAR KPWD 252243Z AUTO 35020G25KTKT 10SM 17/M03 A2985
METAR KPO1 252243Z AUTO 36013G22KTKT  10SM 19/M03 A2987



USA.gov is the U.S. government's official web portal to all federal, state and local government web resources and services.